map of BES home
BES - Airport
Location
City:  Brest, Bretagne, France
Name:Guipavas
ICAO:LFRB
IATA:BES

Details
Type:Airport (Aerodrome, Airfield)
Use:Public/Civil, International (customs port of entry)
Latitude:4826'50"N (48.447222)
Longitude:425'18"W (-4.421666)
Elevation:325 ft (99 m)
Variation:1.58W (WMM2015 magnetic declination)
0.14 annual change
Runways:2
Longest:10171 × 148 ft (3100 × 45 m), paved

Time
Time Zone:UTC+1 (DST+2)
Local Time:

Weather
METAR:LFRB 131630Z AUTO 30015KT 270V330 9999 -RA SCT016/// BKN029/// BKN041/// ///TCU 09/07 Q1004 TEMPO 27020G30KT BECMG 4000 -RA BKN007 BKN015 OVC020
TAF:LFRB 131100Z 1312/1418 22014KT 4000 -RA BKN007 BKN015 OVC020
TEMPO 1312/1418 27020G30KT SHRA
TEMPO 1408/1418 27025G45KT 3000 TSRAGR BKN015CB

Related Locations
Nearby:
Farthest:NZTI: 12132 mi / 19525 km
Taieri, OTA, NZ

Find:

   beyond  
but within

Other Information
Maps:
NOTAMs:
Links:
Sources:

  
flag of France
flag of Bretagne
  

Sectional Chart

Flight Planning
at skyvector.com

Satellite Image

Google Maps Satellite view

 

Copyright © 2004-2017 Karl L. Swartz. All rights reserved.
The Great Circle Mapper name and logo are trademarks of the Great Circle Mapper.
All other trademarks mentioned herein belong to their respective owners.
Please see credits for attibutions and further copyright information.

  Follow gcmap on Facebook Follow gcmap on Twitter Follow gcmap on Google+ GCmap on LinkedIn

hCard Microformat

Geo Microformat